createdAt,value
2022-10-17T00:03:58.949Z,102641.94
2022-10-17T00:08:57.810Z,102630.00
2022-10-17T00:13:57.228Z,102639.16
2022-10-17T00:18:56.192Z,102645.25
2022-10-17T00:23:58.025Z,102671.75
2022-10-17T00:28:59.970Z,102652.84
2022-10-17T00:33:58.508Z,102629.41
2022-10-17T00:39:02.218Z,102655.03
2022-10-17T00:44:25.300Z,102683.19
2022-10-17T00:49:52.322Z,102625.13
2022-10-17T00:55:08.900Z,102651.84
2022-10-17T01:00:34.544Z,102611.22
2022-10-17T01:05:58.721Z,102642.25
2022-10-17T01:11:29.901Z,102679.88
2022-10-17T01:17:00.812Z,102652.72
2022-10-17T01:22:45.483Z,102687.31
2022-10-17T01:28:04.077Z,102615.06
2022-10-17T01:33:14.322Z,102655.91
2022-10-17T01:38:33.635Z,102634.75
2022-10-17T01:43:56.628Z,102705.13
2022-10-17T01:48:57.013Z,102663.44
2022-10-17T01:54:17.850Z,102694.50
2022-10-17T01:59:30.655Z,102662.00
2022-10-17T02:04:29.159Z,102671.63
2022-10-17T02:09:30.568Z,102664.25
2022-10-17T02:14:44.216Z,102685.31
2022-10-17T02:20:05.612Z,102724.44
2022-10-17T02:25:14.448Z,102730.75
2022-10-17T02:30:16.879Z,102682.28
2022-10-17T02:35:16.053Z,102669.16
2022-10-17T02:40:15.838Z,102677.03
2022-10-17T02:45:14.497Z,102687.25
2022-10-17T02:50:13.676Z,102663.31
2022-10-17T02:55:28.320Z,102724.56
2022-10-17T03:00:28.557Z,102753.66
2022-10-17T03:05:29.766Z,102696.84
2022-10-17T03:10:28.346Z,102722.03
2022-10-17T03:15:29.573Z,102688.75
2022-10-17T03:20:28.265Z,102717.06
2022-10-17T03:25:26.684Z,102731.44
2022-10-17T03:30:30.530Z,102738.50
2022-10-17T03:35:31.160Z,102754.44
2022-10-17T03:40:37.108Z,102723.97
2022-10-17T03:45:39.031Z,102721.59
2022-10-17T03:50:38.933Z,102732.81
2022-10-17T03:55:39.200Z,102737.34
2022-10-17T04:00:43.237Z,102712.34
2022-10-17T04:05:41.078Z,102789.59
2022-10-17T04:10:42.480Z,102748.84
2022-10-17T04:15:55.550Z,102762.31
2022-10-17T04:20:54.225Z,102763.91
2022-10-17T04:25:59.318Z,102779.56
2022-10-17T04:31:05.073Z,102747.47
2022-10-17T04:36:16.003Z,102799.72
2022-10-17T04:41:16.420Z,102756.06
2022-10-17T04:46:16.428Z,102755.63
2022-10-17T04:51:26.505Z,102830.47
2022-10-17T04:56:45.267Z,102771.97
2022-10-17T05:01:43.913Z,102782.00
2022-10-17T05:06:42.507Z,102782.47
2022-10-17T05:12:13.419Z,102790.56
2022-10-17T05:17:14.958Z,102820.13
2022-10-17T05:22:14.607Z,102787.72
2022-10-17T05:27:15.022Z,102830.03
2022-10-17T05:32:15.863Z,102796.28
2022-10-17T05:37:16.846Z,102796.72
2022-10-17T05:42:28.432Z,102836.50
2022-10-17T05:47:32.370Z,102830.94
2022-10-17T05:52:33.505Z,102864.91
2022-10-17T05:58:03.048Z,102857.44
2022-10-17T06:03:16.819Z,102876.34
2022-10-17T06:08:17.305Z,102879.34
2022-10-17T06:13:17.099Z,102882.25
2022-10-17T06:18:19.311Z,102849.25
2022-10-17T06:23:19.201Z,102887.28
2022-10-17T06:28:32.676Z,102862.25
2022-10-17T06:33:33.834Z,102885.41
2022-10-17T06:38:37.130Z,102922.63
2022-10-17T06:43:42.458Z,102914.09
2022-10-17T06:49:17.405Z,102939.41
2022-10-17T06:54:35.022Z,102911.91
2022-10-17T06:59:58.790Z,102931.63
2022-10-17T07:05:09.224Z,102923.53
2022-10-17T07:10:12.234Z,102891.25
2022-10-17T07:15:14.170Z,102894.53
2022-10-17T07:20:15.090Z,102929.19
2022-10-17T07:25:13.170Z,102914.38
2022-10-17T07:30:20.787Z,102908.84
2022-10-17T07:35:25.752Z,102895.59
2022-10-17T07:40:28.377Z,102908.38
2022-10-17T07:45:27.978Z,102898.16
2022-10-17T07:50:27.891Z,102927.50
2022-10-17T07:55:29.017Z,102901.00
2022-10-17T08:00:30.423Z,102923.53
2022-10-17T08:05:33.345Z,102887.94
2022-10-17T08:10:32.398Z,102919.19
2022-10-17T08:15:32.341Z,102882.00
2022-10-17T08:20:33.445Z,102905.88
2022-10-17T08:25:35.246Z,102921.34
2022-10-17T08:30:35.385Z,102893.63
2022-10-17T08:35:34.592Z,102882.47
2022-10-17T08:40:36.740Z,102906.06
2022-10-17T08:45:47.493Z,102896.59
2022-10-17T08:50:51.170Z,102928.94
2022-10-17T08:55:53.670Z,102917.75
2022-10-17T09:00:59.901Z,102917.94
2022-10-17T09:06:22.879Z,102890.41
2022-10-17T09:11:39.842Z,102948.56
2022-10-17T09:17:03.083Z,102943.59
2022-10-17T09:22:15.460Z,102910.75
2022-10-17T09:27:35.151Z,102918.34
2022-10-17T09:32:44.224Z,102889.03
2022-10-17T09:37:42.752Z,102903.72
2022-10-17T09:42:47.453Z,102879.38
2022-10-17T09:48:09.273Z,102896.31
2022-10-17T09:53:42.010Z,102875.38
2022-10-17T09:58:46.499Z,102926.88
2022-10-17T10:03:45.837Z,102876.06
2022-10-17T10:08:55.471Z,102886.06
2022-10-17T10:13:55.065Z,102891.16
2022-10-17T10:18:56.150Z,102873.44
2022-10-17T10:24:30.326Z,102897.09
2022-10-17T10:29:41.842Z,102892.63
2022-10-17T10:34:51.100Z,102868.00
2022-10-17T10:40:04.034Z,102832.00
2022-10-17T10:50:47.535Z,102846.00
2022-10-17T10:55:55.229Z,102822.47
2022-10-17T11:00:54.695Z,102816.44
2022-10-17T11:06:23.962Z,102829.66
2022-10-17T11:11:39.426Z,102858.50
2022-10-17T11:17:08.956Z,102815.97
2022-10-17T11:22:17.483Z,102842.22
2022-10-17T11:27:15.293Z,102797.69
2022-10-17T11:32:23.633Z,102774.75
2022-10-17T11:37:25.998Z,102814.56
2022-10-17T11:42:31.163Z,102757.50
2022-10-17T11:47:38.203Z,102818.00
2022-10-17T11:52:55.462Z,102810.78
2022-10-17T11:58:09.651Z,102803.59
2022-10-17T12:03:46.100Z,102805.19
2022-10-17T12:08:52.546Z,102757.44
2022-10-17T12:13:57.227Z,102760.97
2022-10-17T12:19:03.797Z,102793.97
2022-10-17T12:24:02.147Z,102767.38
2022-10-17T12:29:00.603Z,102760.81
2022-10-17T12:34:19.800Z,102760.28
2022-10-17T12:39:20.435Z,102796.44
2022-10-17T12:44:21.895Z,102781.50
2022-10-17T12:49:22.374Z,102780.41
2022-10-17T12:54:26.080Z,102751.31
2022-10-17T12:59:29.061Z,102714.09
2022-10-17T13:04:27.308Z,102774.16
2022-10-17T13:09:30.805Z,102755.00
2022-10-17T13:14:31.311Z,102725.59
2022-10-17T13:19:44.241Z,102754.38
2022-10-17T13:24:44.038Z,102763.13
2022-10-17T13:29:44.836Z,102717.16
2022-10-17T13:34:45.041Z,102733.22
2022-10-17T13:40:00.320Z,102755.53
2022-10-17T13:45:11.485Z,102785.13
2022-10-17T13:50:43.060Z,102787.13
2022-10-17T13:56:26.230Z,102764.63
2022-10-17T14:01:24.710Z,102724.31
2022-10-17T14:06:26.386Z,102753.03
2022-10-17T14:11:38.508Z,102783.59
2022-10-17T14:16:41.359Z,102719.53
2022-10-17T14:21:44.506Z,102744.97
2022-10-17T14:26:51.045Z,102743.97
2022-10-17T14:32:04.732Z,102783.28
2022-10-17T14:37:14.018Z,102748.50
2022-10-17T14:42:25.453Z,102750.72
2022-10-17T14:47:43.264Z,102753.56
2022-10-17T14:53:24.680Z,102737.47
2022-10-17T14:58:32.332Z,102773.25
2022-10-17T15:03:33.600Z,102764.19
2022-10-17T15:08:34.455Z,102799.13
2022-10-17T15:13:39.223Z,102759.53
2022-10-17T15:18:48.960Z,102754.22
2022-10-17T15:23:52.869Z,102778.31
2022-10-17T15:28:51.545Z,102811.25
2022-10-17T15:34:05.702Z,102807.09
2022-10-17T15:39:05.554Z,102755.59
2022-10-17T15:44:06.786Z,102758.69
2022-10-17T15:49:15.267Z,102767.03
2022-10-17T15:54:15.867Z,102796.63
2022-10-17T15:59:24.525Z,102807.97
2022-10-17T16:04:28.487Z,102793.47
2022-10-17T16:09:31.216Z,102831.25
2022-10-17T16:14:34.889Z,102816.97
2022-10-17T16:19:36.260Z,102798.56
2022-10-17T16:24:39.091Z,102804.06
2022-10-17T16:29:47.648Z,102796.31
2022-10-17T16:34:48.895Z,102812.88
2022-10-17T16:40:01.617Z,102815.94
2022-10-17T16:45:52.708Z,102855.75
2022-10-17T16:50:56.374Z,102815.44
2022-10-17T16:56:10.128Z,102810.28
2022-10-17T17:01:21.959Z,102795.50
2022-10-17T17:11:51.924Z,102796.94
2022-10-17T17:16:59.917Z,102834.88
2022-10-17T17:22:05.608Z,102845.63
2022-10-17T17:27:33.079Z,102847.63
2022-10-17T17:38:37.359Z,102843.38
2022-10-17T17:43:37.862Z,102863.13
2022-10-17T17:48:44.608Z,102826.53
2022-10-17T17:54:39.992Z,102868.47
2022-10-17T17:59:50.708Z,102831.28
2022-10-17T18:05:17.177Z,102833.44
2022-10-17T18:10:33.910Z,102838.28
2022-10-17T18:15:36.232Z,102845.97
2022-10-17T18:20:51.392Z,102855.88
2022-10-17T18:26:02.597Z,102884.53
2022-10-17T18:31:46.038Z,102874.22
2022-10-17T18:36:48.723Z,102863.38
2022-10-17T18:42:02.304Z,102838.50
2022-10-17T18:47:15.341Z,102875.00
2022-10-17T18:52:25.723Z,102868.78
2022-10-17T18:57:27.886Z,102830.34
2022-10-17T19:02:32.137Z,102864.00
2022-10-17T19:07:37.182Z,102855.53
2022-10-17T19:12:37.647Z,102883.63
2022-10-17T19:17:36.776Z,102875.13
2022-10-17T19:22:37.210Z,102850.69
2022-10-17T19:27:42.041Z,102867.19
2022-10-17T19:32:44.428Z,102887.53
2022-10-17T19:37:48.365Z,102888.09
2022-10-17T19:42:48.389Z,102836.78
2022-10-17T19:47:54.781Z,102869.78
2022-10-17T19:53:00.162Z,102908.31
2022-10-17T19:58:01.491Z,102853.16
2022-10-17T20:03:20.561Z,102902.41
2022-10-17T20:08:29.614Z,102899.13
2022-10-17T20:13:29.995Z,102888.09
2022-10-17T20:18:32.299Z,102875.81
2022-10-17T20:23:30.323Z,102914.22
2022-10-17T20:28:33.753Z,102875.44
2022-10-17T20:33:32.188Z,102902.22
2022-10-17T20:38:30.176Z,102881.16
2022-10-17T20:43:28.357Z,102840.66
2022-10-17T20:48:26.782Z,102897.78
2022-10-17T20:53:35.974Z,102882.19
2022-10-17T20:58:36.110Z,102887.75
2022-10-17T21:03:42.342Z,102873.34
2022-10-17T21:08:48.665Z,102874.81
2022-10-17T21:13:49.710Z,102856.13
2022-10-17T21:18:51.512Z,102832.31
2022-10-17T21:23:52.691Z,102846.69
2022-10-17T21:28:51.851Z,102867.13
2022-10-17T21:33:56.478Z,102869.53
2022-10-17T21:38:56.742Z,102860.94
2022-10-17T21:44:07.837Z,102859.41
2022-10-17T21:49:11.097Z,102859.66
2022-10-17T21:54:12.024Z,102861.09
2022-10-17T21:59:15.341Z,102866.50
2022-10-17T22:04:18.482Z,102861.28
2022-10-17T22:09:23.741Z,102861.03
2022-10-17T22:14:24.997Z,102841.72
2022-10-17T22:19:26.539Z,102856.31
2022-10-17T22:24:28.597Z,102825.06
2022-10-17T22:29:28.287Z,102860.38
2022-10-17T22:34:32.486Z,102830.66
2022-10-17T22:39:33.558Z,102868.38
2022-10-17T22:44:33.613Z,102860.88
2022-10-17T22:49:45.058Z,102855.03
2022-10-17T22:54:53.244Z,102869.13
2022-10-17T23:00:05.943Z,102868.75
2022-10-17T23:05:10.670Z,102873.78
2022-10-17T23:10:13.523Z,102835.13
2022-10-17T23:15:12.420Z,102870.72
2022-10-17T23:20:12.633Z,102848.06
2022-10-17T23:25:14.397Z,102865.91
2022-10-17T23:30:16.648Z,102845.53
2022-10-17T23:35:19.580Z,102839.16
2022-10-17T23:40:22.015Z,102860.91
2022-10-17T23:45:24.294Z,102864.56
2022-10-17T23:50:25.965Z,102850.66
2022-10-17T23:55:27.139Z,102829.47
